createdAt,value
2023-03-29T00:04:02.418Z,61.32
2023-03-29T00:09:10.950Z,61.19
2023-03-29T00:14:18.286Z,61.08
2023-03-29T00:19:25.663Z,61.13
2023-03-29T00:24:33.159Z,61.07
2023-03-29T00:29:40.447Z,61.29
2023-03-29T00:34:51.297Z,61.13
2023-03-29T00:39:59.287Z,60.97
2023-03-29T00:45:19.222Z,61.11
2023-03-29T00:50:31.332Z,61.11
2023-03-29T00:55:44.256Z,60.92
2023-03-29T01:00:55.923Z,61.01
2023-03-29T01:06:09.188Z,60.89
2023-03-29T01:11:19.810Z,60.95
2023-03-29T01:16:28.953Z,61.04
2023-03-29T01:21:43.051Z,61.23
2023-03-29T01:27:02.378Z,61.20
2023-03-29T01:32:13.733Z,61.50
2023-03-29T01:37:26.971Z,61.52
2023-03-29T01:42:44.617Z,61.49
2023-03-29T01:48:01.025Z,61.37
2023-03-29T01:53:13.534Z,61.26
2023-03-29T01:58:24.130Z,61.51
2023-03-29T02:03:42.974Z,61.49
2023-03-29T02:08:50.889Z,61.46
2023-03-29T02:13:58.811Z,61.45
2023-03-29T02:19:07.108Z,61.53
2023-03-29T02:24:19.689Z,61.76
2023-03-29T02:29:27.773Z,61.75
2023-03-29T02:34:41.289Z,61.78
2023-03-29T02:39:50.295Z,61.93
2023-03-29T02:45:01.376Z,61.94
2023-03-29T02:50:10.864Z,62.16
2023-03-29T02:55:21.632Z,62.24
2023-03-29T03:00:29.704Z,62.26
2023-03-29T03:05:37.393Z,62.37
2023-03-29T03:10:46.253Z,62.25
2023-03-29T03:15:54.568Z,62.18
2023-03-29T03:21:02.847Z,61.91
2023-03-29T03:26:11.169Z,61.93
2023-03-29T03:31:19.962Z,61.74
2023-03-29T03:36:47.697Z,61.78
2023-03-29T03:41:55.088Z,61.79
2023-03-29T03:47:03.012Z,61.91
2023-03-29T03:52:11.137Z,61.78
2023-03-29T03:57:19.131Z,61.80
2023-03-29T04:02:31.387Z,61.65
2023-03-29T04:07:38.906Z,61.83
2023-03-29T04:13:05.445Z,61.94
2023-03-29T04:18:14.711Z,62.15
2023-03-29T04:23:26.558Z,62.24
2023-03-29T04:28:34.746Z,62.29
2023-03-29T04:33:52.770Z,62.53
2023-03-29T04:39:01.826Z,62.73
2023-03-29T04:44:10.054Z,62.90
2023-03-29T04:49:18.141Z,62.91
2023-03-29T04:54:28.857Z,63.11
2023-03-29T04:59:56.786Z,63.07
2023-03-29T05:05:39.864Z,63.27
2023-03-29T05:10:48.018Z,63.44
2023-03-29T05:15:55.643Z,63.34
2023-03-29T05:21:04.735Z,63.54
2023-03-29T05:26:15.682Z,63.73
2023-03-29T05:31:28.574Z,63.80
2023-03-29T05:36:37.329Z,64.05
2023-03-29T05:41:45.017Z,63.73
2023-03-29T05:47:12.815Z,63.73
2023-03-29T05:52:20.656Z,63.78
2023-03-29T05:57:28.672Z,63.77
2023-03-29T06:02:37.166Z,63.62
2023-03-29T06:07:44.695Z,63.26
2023-03-29T06:12:54.897Z,62.73
2023-03-29T06:18:04.387Z,62.57
2023-03-29T06:23:11.954Z,62.44
2023-03-29T06:28:20.076Z,62.76
2023-03-29T06:33:28.081Z,62.54
2023-03-29T06:38:44.737Z,62.73
2023-03-29T06:44:28.931Z,62.86
2023-03-29T06:49:41.375Z,62.95
2023-03-29T06:55:12.311Z,63.20
2023-03-29T07:00:28.495Z,63.23
2023-03-29T07:06:02.055Z,63.24
2023-03-29T07:11:10.737Z,63.10
2023-03-29T07:16:19.692Z,63.07
2023-03-29T07:21:38.101Z,63.09
2023-03-29T07:27:00.250Z,63.05
2023-03-29T07:32:10.833Z,62.89
2023-03-29T07:37:25.131Z,62.62
2023-03-29T07:42:33.326Z,62.53
2023-03-29T07:47:41.248Z,62.58
2023-03-29T07:52:49.686Z,62.67
2023-03-29T07:57:57.349Z,62.50
2023-03-29T08:03:06.005Z,62.51
2023-03-29T08:08:14.797Z,62.35
2023-03-29T08:13:36.184Z,62.18
2023-03-29T08:19:07.879Z,60.67
2023-03-29T08:24:32.925Z,59.54
2023-03-29T08:29:43.472Z,59.10
2023-03-29T08:34:51.278Z,58.37
2023-03-29T08:40:04.274Z,57.60
2023-03-29T08:45:27.874Z,57.22
2023-03-29T08:50:42.942Z,56.30
2023-03-29T08:55:53.381Z,54.91
2023-03-29T09:01:25.251Z,53.12
2023-03-29T09:06:36.393Z,53.24
2023-03-29T09:12:09.036Z,53.67
2023-03-29T09:17:28.540Z,53.34
2023-03-29T09:22:45.072Z,53.04
2023-03-29T09:28:00.214Z,51.90
2023-03-29T09:33:27.528Z,51.17
2023-03-29T09:38:56.029Z,51.37
2023-03-29T09:44:23.967Z,51.87
2023-03-29T09:49:42.195Z,51.65
2023-03-29T09:54:50.435Z,52.16
2023-03-29T10:00:11.132Z,51.95
2023-03-29T10:05:22.474Z,52.12
2023-03-29T10:10:33.124Z,51.78
2023-03-29T10:15:40.533Z,51.69
2023-03-29T10:20:49.242Z,51.16
2023-03-29T10:25:57.594Z,51.10
2023-03-29T10:31:08.570Z,50.72
2023-03-29T10:36:17.034Z,50.16
2023-03-29T10:41:25.613Z,50.40
2023-03-29T10:46:36.695Z,50.23
2023-03-29T10:51:49.849Z,49.25
2023-03-29T10:57:00.737Z,48.12
2023-03-29T11:02:40.619Z,47.85
2023-03-29T11:08:09.164Z,48.13
2023-03-29T11:13:24.083Z,48.54
2023-03-29T11:18:53.124Z,48.32
2023-03-29T11:24:17.291Z,47.63
2023-03-29T11:29:30.115Z,47.69
2023-03-29T11:34:50.966Z,47.56
2023-03-29T11:40:12.143Z,47.39
2023-03-29T11:45:28.925Z,47.73
2023-03-29T11:50:44.351Z,47.76
2023-03-29T11:55:56.345Z,47.78
2023-03-29T12:01:09.734Z,47.71
2023-03-29T12:06:22.978Z,47.12
2023-03-29T12:11:38.403Z,46.27
2023-03-29T12:16:52.433Z,45.69
2023-03-29T12:22:03.375Z,45.48
2023-03-29T12:27:29.265Z,45.13
2023-03-29T12:32:48.544Z,44.59
2023-03-29T12:38:24.605Z,43.21
2023-03-29T12:43:51.369Z,43.61
2023-03-29T12:49:35.041Z,44.09
2023-03-29T12:54:42.870Z,44.31
2023-03-29T12:59:52.774Z,43.64
2023-03-29T13:05:02.087Z,43.70
2023-03-29T13:10:30.802Z,43.13
2023-03-29T13:15:39.310Z,43.23
2023-03-29T13:20:54.076Z,42.85
2023-03-29T13:26:24.749Z,42.39
2023-03-29T13:31:48.715Z,41.46
2023-03-29T13:37:05.258Z,40.95
2023-03-29T13:42:22.329Z,41.93
2023-03-29T13:47:58.450Z,41.55
2023-03-29T13:53:17.676Z,40.87
2023-03-29T13:58:36.371Z,40.86
2023-03-29T14:03:47.895Z,41.18
2023-03-29T14:08:57.120Z,41.82
2023-03-29T14:14:06.867Z,41.85
2023-03-29T14:19:20.522Z,41.12
2023-03-29T14:24:36.303Z,40.66
2023-03-29T14:29:46.822Z,40.09
2023-03-29T14:34:54.551Z,40.25
2023-03-29T14:40:02.938Z,40.02
2023-03-29T14:45:15.221Z,39.69
2023-03-29T14:50:23.405Z,39.81
2023-03-29T14:55:31.391Z,38.85
2023-03-29T15:00:44.015Z,39.09
2023-03-29T15:05:56.292Z,38.44
2023-03-29T15:11:04.649Z,38.52
2023-03-29T15:16:15.636Z,38.38
2023-03-29T15:21:33.808Z,38.25
2023-03-29T15:26:42.429Z,37.98
2023-03-29T15:31:59.433Z,38.37
2023-03-29T15:37:08.094Z,37.85
2023-03-29T15:42:16.804Z,38.36
2023-03-29T15:47:24.477Z,38.40
2023-03-29T15:52:32.219Z,38.83
2023-03-29T15:57:40.238Z,38.96
2023-03-29T16:02:47.974Z,38.84
2023-03-29T16:07:55.746Z,38.88
2023-03-29T16:13:03.584Z,38.85
2023-03-29T16:18:11.359Z,39.00
2023-03-29T16:23:18.947Z,38.78
2023-03-29T16:28:26.959Z,39.07
2023-03-29T16:33:34.609Z,38.98
2023-03-29T16:38:42.465Z,39.10
2023-03-29T16:43:49.990Z,39.07
2023-03-29T16:48:58.328Z,39.27
2023-03-29T16:54:05.688Z,39.37
2023-03-29T16:59:13.686Z,40.35
2023-03-29T17:04:20.997Z,41.09
2023-03-29T17:09:29.942Z,41.91
2023-03-29T17:14:37.749Z,42.30
2023-03-29T17:19:45.117Z,42.62
2023-03-29T17:24:52.509Z,43.24
2023-03-29T17:30:00.502Z,43.72
2023-03-29T17:35:08.792Z,44.49
2023-03-29T17:40:18.371Z,45.19
2023-03-29T17:45:26.150Z,45.60
2023-03-29T17:50:33.670Z,46.21
2023-03-29T17:55:42.763Z,46.70
2023-03-29T18:00:50.288Z,46.86
2023-03-29T18:05:58.072Z,47.34
2023-03-29T18:11:12.053Z,47.79
2023-03-29T18:16:20.172Z,48.00
2023-03-29T18:21:27.940Z,48.24
2023-03-29T18:26:35.583Z,48.40
2023-03-29T18:31:44.071Z,48.80
2023-03-29T18:36:51.528Z,49.42
2023-03-29T18:41:58.892Z,49.98
2023-03-29T18:47:06.393Z,50.32
2023-03-29T18:52:14.126Z,50.50
2023-03-29T18:57:21.513Z,50.75
2023-03-29T19:02:29.311Z,50.92
2023-03-29T19:07:37.238Z,51.26
2023-03-29T19:12:44.911Z,51.25
2023-03-29T19:17:52.214Z,51.00
2023-03-29T19:23:00.117Z,50.81
2023-03-29T19:28:09.076Z,50.79
2023-03-29T19:33:17.397Z,50.37
2023-03-29T19:38:24.986Z,50.19
2023-03-29T19:43:33.112Z,50.28
2023-03-29T19:48:40.986Z,50.24
2023-03-29T19:53:48.377Z,50.11
2023-03-29T19:58:56.099Z,50.19
2023-03-29T20:04:03.993Z,50.03
2023-03-29T20:09:11.673Z,49.91
2023-03-29T20:14:19.252Z,50.04
2023-03-29T20:19:27.234Z,49.89
2023-03-29T20:24:35.260Z,49.82
2023-03-29T20:29:43.256Z,49.73
2023-03-29T20:34:51.346Z,49.57
2023-03-29T20:39:59.751Z,49.27
2023-03-29T20:45:08.427Z,49.17
2023-03-29T20:50:19.133Z,49.04
2023-03-29T20:55:27.265Z,49.03
2023-03-29T21:00:35.872Z,48.75
2023-03-29T21:05:43.791Z,48.63
2023-03-29T21:10:52.140Z,48.59
2023-03-29T21:16:01.203Z,48.63
2023-03-29T21:21:11.156Z,48.48
2023-03-29T21:26:18.975Z,48.46
2023-03-29T21:31:26.618Z,48.44
2023-03-29T21:36:34.211Z,48.17
2023-03-29T21:41:41.811Z,48.23
2023-03-29T21:46:49.271Z,48.18
2023-03-29T21:51:57.209Z,48.14
2023-03-29T21:57:04.727Z,48.07
2023-03-29T22:02:12.543Z,48.04
2023-03-29T22:07:23.140Z,48.00
2023-03-29T22:12:30.716Z,47.97
2023-03-29T22:17:38.805Z,47.99
2023-03-29T22:22:50.089Z,48.02
2023-03-29T22:27:57.413Z,47.98
2023-03-29T22:33:05.074Z,48.04
2023-03-29T22:38:13.096Z,47.92
2023-03-29T22:43:20.416Z,48.11
2023-03-29T22:48:28.064Z,48.25
2023-03-29T22:53:35.871Z,48.18
2023-03-29T22:58:43.848Z,48.24
2023-03-29T23:03:51.708Z,48.38
2023-03-29T23:08:59.372Z,48.43
2023-03-29T23:14:07.973Z,48.48
2023-03-29T23:19:15.446Z,48.58
2023-03-29T23:24:23.252Z,48.62
2023-03-29T23:29:30.957Z,48.65
2023-03-29T23:34:38.260Z,48.55
2023-03-29T23:39:45.774Z,48.70
2023-03-29T23:44:53.222Z,48.69
2023-03-29T23:50:02.593Z,48.70
2023-03-29T23:55:15.365Z,48.76
